KITR

Kit Carson County Airport

Burlington, Colorado, USA
METAR KITR 171353Z AUTO 23011KT 10SM CLR M03/M08 A3014 RMK AO2 SLP220 T10281083 $
Observed Flight Rules
Dec-17 @ 13:53 UTC (56 minutes ago) Visual Flight Rules
Wind Visibility Clouds
230° at 11 knots 10 miles
  • Clear skies
Temperatures Readings
Current -3°C / 27°F
Dewpoint -8°C / 18°F
Humidity 69%
Altimeter 30.14" Hg
Pressure 1022 hPa
Elevation 1279
METAR KITR 171353Z AUTO 23011KT 10SM CLR M03/M08 A3014 RMK AO2 SLP220 T10281083 $
Observed Flight Rules
Dec-17 @ 13:53 UTC
(56 minutes ago)
VFR
Wind Visibility
230° at 11 knots 10 miles
Clouds
  • Clear skies
Temperature Dewpoint
-3°C / 27°F -8°C / 18°F
Humidity Altimeter Pressure
69% 30.14" Hg 1022 hPa